Time;durP1;ratioP1;P1;durP2;ratioP2;P2;SDS_P1;SDS_P2;PMS_P1;PMS_P2;Temp;Humidity;BMP_temperature;BMP_pressure;BME280_temperature;BME280_humidity;BME280_pressure;Samples;Min_cycle;Max_cycle;Signal;HPM_P1;HPM_P2
2022/05/11 00:01:41;;;;;;;3.92;1.83;;;;;;;9.27;83.25;97340.78;5062764;28;20522;-63
2022/05/11 00:04:10;;;;;;;4.15;2.20;;;;;;;9.29;83.67;97332.97;5063628;28;20048;-62
2022/05/11 00:06:37;;;;;;;3.28;1.73;;;;;;;9.33;82.02;97320.03;5063248;28;20056;-63
2022/05/11 00:09:06;;;;;;;4.15;1.80;;;;;;;9.30;81.65;97334.56;5063353;28;20060;-64
2022/05/11 00:11:34;;;;;;;4.72;1.88;;;;;;;9.17;80.72;97297.09;5063089;28;20051;-63
2022/05/11 00:14:00;;;;;;;4.70;1.83;;;;;;;8.73;80.92;97265.09;5061586;28;20053;-62
2022/05/11 00:16:28;;;;;;;3.70;1.77;;;;;;;9.12;80.87;97327.75;5061552;28;20529;-62
2022/05/11 00:18:55;;;;;;;4.85;1.75;;;;;;;9.07;82.25;97333.53;5061755;28;20052;-62
2022/05/11 00:21:22;;;;;;;4.70;1.77;;;;;;;9.02;82.21;97326.31;5061882;28;20045;-62
2022/05/11 00:23:51;;;;;;;5.60;1.70;;;;;;;9.06;80.42;97331.91;5063082;28;20053;-62
2022/05/11 00:26:18;;;;;;;4.13;1.90;;;;;;;9.07;81.18;97331.56;5062843;28;20057;-62
2022/05/11 00:28:46;;;;;;;4.53;1.85;;;;;;;9.10;80.83;97324.53;5062965;28;20053;-62
2022/05/11 00:31:12;;;;;;;3.50;1.60;;;;;;;8.57;80.28;97261.50;5061578;28;20056;-63
2022/05/11 00:33:39;;;;;;;6.90;2.30;;;;;;;8.91;81.75;97321.66;5061426;28;20063;-63
2022/05/11 00:36:12;;;;;;;4.03;1.75;;;;;;;8.86;81.88;97321.91;5051548;28;20057;-62
2022/05/11 00:38:40;;;;;;;2.88;1.67;;;;;;;8.87;81.26;97342.84;5043453;28;20057;-63
2022/05/11 00:41:08;;;;;;;4.30;1.58;;;;;;;8.91;83.24;97330.75;5046413;28;20084;-62
2022/05/11 00:43:38;;;;;;;5.15;2.00;;;;;;;8.97;83.57;97323.00;5045534;28;20053;-62
2022/05/11 00:46:05;;;;;;;3.42;1.48;;;;;;;8.86;83.40;97319.13;5044997;28;20053;-63
2022/05/11 00:51:18;;;;;;;4.28;1.80;;;;;;;8.63;81.89;97288.50;5046177;28;20051;-63
2022/05/11 00:53:53;;;;;;;4.75;1.70;;;;;;;8.71;82.62;97289.53;5045543;28;20061;-62
2022/05/11 00:56:22;;;;;;;4.35;1.40;;;;;;;8.70;82.70;97304.47;5045118;28;20053;-62
2022/05/11 00:58:52;;;;;;;3.35;1.42;;;;;;;8.50;81.85;97291.69;5046648;28;20064;-62
2022/05/11 01:01:19;;;;;;;5.03;1.70;;;;;;;8.73;81.51;97320.34;5044819;28;20056;-62
2022/05/11 01:04:00;;;;;;;3.70;1.40;;;;;;;8.59;81.87;97292.31;5046635;28;20068;-62
2022/05/11 01:06:28;;;;;;;3.70;1.60;;;;;;;8.81;81.42;97316.63;5044809;28;20056;-63
2022/05/11 01:08:55;;;;;;;6.97;1.95;;;;;;;8.72;82.54;97318.75;2293282;28;10002175;-63
2022/05/11 01:11:22;;;;;;;4.00;1.98;;;;;;;8.71;83.05;97311.63;4995620;28;20057;-63
2022/05/11 01:13:49;;;;;;;5.97;2.53;;;;;;;8.29;82.63;97280.00;5026636;28;20421;-63
2022/05/11 01:16:16;;;;;;;2.78;1.35;;;;;;;8.60;81.87;97332.59;5027727;28;20060;-63
2022/05/11 01:18:44;;;;;;;4.25;2.17;;;;;;;8.68;82.23;97323.34;5029039;28;20058;-63
2022/05/11 01:21:11;;;;;;;3.20;1.55;;;;;;;8.28;82.55;97281.16;5024263;28;20064;-63
2022/05/11 01:24:02;;;;;;;4.28;1.55;;;;;;;8.56;82.51;97315.13;5026470;28;20436;-63
2022/05/11 01:26:32;;;;;;;5.95;1.58;;;;;;;8.11;81.84;97253.84;5024612;28;20057;-63
2022/05/11 01:29:01;;;;;;;4.55;2.00;;;;;;;8.24;81.84;97259.00;5026669;28;20058;-62
2022/05/11 01:31:27;;;;;;;2.60;1.52;;;;;;;8.53;82.22;97304.78;5025842;28;20060;-63
2022/05/11 01:33:54;;;;;;;4.03;1.45;;;;;;;8.45;82.62;97302.97;5026111;28;20236;-63
2022/05/11 01:36:30;;;;;;;2.67;1.70;;;;;;;8.10;81.89;97282.56;5025644;28;20409;-62
2022/05/11 01:39:09;;;;;;;3.63;1.52;;;;;;;8.46;79.81;97315.59;5024632;28;20049;-63
2022/05/11 01:41:42;;;;;;;5.43;1.52;;;;;;;8.46;79.99;97318.34;5024346;28;20056;-63
2022/05/11 01:44:12;;;;;;;2.00;1.23;;;;;;;7.77;81.01;97221.25;5024894;28;20061;-62
2022/05/11 01:46:43;;;;;;;6.68;1.92;;;;;;;8.29;81.14;97318.66;5025736;28;20068;-62
2022/05/11 01:49:10;;;;;;;5.22;1.67;;;;;;;8.32;81.31;97320.72;5025477;28;20053;-62
2022/05/11 01:51:37;;;;;;;3.13;1.88;;;;;;;8.22;81.77;97315.66;5023081;28;20531;-63
2022/05/11 01:54:04;;;;;;;2.72;1.50;;;;;;;8.12;83.06;97316.13;5025426;28;20528;-63
2022/05/11 01:56:31;;;;;;;5.05;1.83;;;;;;;8.00;83.88;97307.88;5025321;28;20059;-62
2022/05/11 01:58:57;;;;;;;3.00;1.48;;;;;;;8.06;83.44;97306.50;5024125;28;20049;-63
2022/05/11 02:01:27;;;;;;;4.60;1.52;;;;;;;8.18;83.42;97312.78;5025241;28;20052;-63
2022/05/11 02:03:54;;;;;;;4.00;1.58;;;;;;;7.96;81.61;97280.19;5031275;28;20057;-63
2022/05/11 02:09:07;;;;;;;3.42;1.92;;;;;;;8.27;81.41;97318.19;5045332;28;20052;-63
2022/05/11 05:56:52;;;;;;;4.18;2.80;;;;;;;14.99;62.59;97338.00;5095350;27;1318175;-61
2022/05/11 05:59:19;;;;;;;8.10;3.25;;;;;;;15.38;62.48;97346.53;5142293;27;20043;-64
2022/05/11 06:01:46;;;;;;;3.88;2.35;;;;;;;15.48;61.69;97349.38;5142322;27;20043;-64
2022/05/11 06:04:13;;;;;;;4.28;2.45;;;;;;;15.70;60.83;97350.22;5142359;27;20100;-62
2022/05/11 06:06:39;;;;;;;5.07;2.65;;;;;;;15.90;59.63;97355.03;5118148;27;20057;-60
2022/05/11 06:09:06;;;;;;;7.60;3.40;;;;;;;16.17;58.00;97355.50;5132442;27;20281;-62
2022/05/11 06:11:32;;;;;;;8.25;3.05;;;;;;;15.40;60.31;97300.31;5123027;27;20054;-65
2022/05/11 06:13:59;;;;;;;15.02;4.03;;;;;;;15.92;60.34;97319.13;5122229;27;20535;-60
2022/05/11 06:16:26;;;;;;;8.95;3.13;;;;;;;16.33;59.20;97334.31;5120482;27;20053;-68
2022/05/11 06:18:53;;;;;;;6.32;3.17;;;;;;;16.91;58.24;97359.03;5122664;27;20532;-58
2022/05/11 06:21:20;;;;;;;5.60;2.88;;;;;;;16.76;58.50;97283.88;5140041;27;20046;-65
2022/05/11 06:23:47;;;;;;;4.07;2.88;;;;;;;16.93;57.92;97271.84;5122432;27;20428;-61
2022/05/11 06:26:16;;;;;;;4.20;2.80;;;;;;;17.88;54.82;97350.56;5139751;27;20046;-61
2022/05/11 06:28:45;;;;;;;4.95;2.72;;;;;;;17.81;52.16;97328.22;5141797;27;20047;-58
2022/05/11 06:31:19;;;;;;;7.25;2.42;;;;;;;17.63;50.75;97237.84;5140492;27;20054;-60
2022/05/11 06:33:49;;;;;;;4.63;2.50;;;;;;;18.48;49.58;97355.75;5140583;27;20539;-66
2022/05/11 06:36:16;;;;;;;4.72;2.95;;;;;;;18.97;48.31;97347.63;5139984;27;20141;-61
2022/05/11 06:38:43;;;;;;;4.60;2.80;;;;;;;18.73;47.36;97272.13;5140467;27;20042;-61
2022/05/11 06:41:13;;;;;;;3.72;2.38;;;;;;;19.54;47.21;97350.56;5121864;27;20046;-69
2022/05/11 06:43:39;;;;;;;4.28;2.55;;;;;;;19.57;46.20;97365.81;5140864;27;20074;-61
2022/05/11 06:46:06;;;;;;;5.82;2.90;;;;;;;19.21;45.04;97276.34;5139618;27;20053;-60
2022/05/11 06:48:33;;;;;;;11.93;3.60;;;;;;;18.45;46.95;97329.31;5121188;27;20103;-64
2022/05/11 06:51:00;;;;;;;12.13;4.32;;;;;;;19.00;47.35;97346.00;5121982;27;20484;-61
2022/05/11 06:53:27;;;;;;;7.63;3.28;;;;;;;19.34;46.47;97346.81;5139797;27;20412;-60
2022/05/11 07:01:24;;;;;;;5.50;2.88;;;;;;;20.01;47.53;97341.06;5139867;27;20043;-65
2022/05/11 07:03:51;;;;;;;9.77;3.75;;;;;;;20.01;50.00;97345.91;5116703;27;20066;-64
2022/05/11 07:06:18;;;;;;;6.97;4.35;;;;;;;19.87;50.21;97351.75;5124826;27;20047;-61
2022/05/11 07:08:45;;;;;;;6.25;3.75;;;;;;;19.77;49.48;97285.22;5126256;27;20054;-60
2022/05/11 07:13:57;;;;;;;5.72;2.08;;;;;;;20.27;44.77;97292.44;5122811;27;20078;-69
2022/05/11 07:16:25;;;;;;;5.85;2.50;;;;;;;20.45;43.89;97337.97;5110812;27;20054;-61
2022/05/11 07:18:52;;;;;;;4.35;2.88;;;;;;;20.80;44.29;97336.56;5110563;27;20478;-64
2022/05/11 07:21:19;;;;;;;2.72;2.13;;;;;;;20.91;43.29;97340.75;5110007;27;20043;-61
2022/05/11 07:23:46;;;;;;;4.90;2.63;;;;;;;20.75;43.45;97312.47;5105125;27;20054;-62
2022/05/11 07:26:12;;;;;;;3.72;2.50;;;;;;;21.31;43.38;97347.25;5105641;27;20498;-58
2022/05/11 07:28:40;;;;;;;4.85;2.47;;;;;;;21.52;42.10;97332.72;5105769;27;20116;-59
2022/05/11 07:31:07;;;;;;;2.67;2.47;;;;;;;21.64;41.54;97334.84;5108446;27;20261;-59
2022/05/11 07:33:34;;;;;;;3.63;2.50;;;;;;;21.62;40.86;97297.88;5105221;27;20055;-59
2022/05/11 07:36:02;;;;;;;2.35;2.13;;;;;;;21.76;39.94;97314.50;5105724;27;20474;-60
2022/05/11 07:38:28;;;;;;;4.07;2.60;;;;;;;21.85;38.16;97328.78;5106183;27;20058;-60
2022/05/11 07:40:55;;;;;;;5.38;2.30;;;;;;;21.64;38.03;97301.03;5113421;27;20580;-59
2022/05/11 07:43:22;;;;;;;3.70;2.53;;;;;;;22.23;37.60;97318.59;5111412;27;20132;-61
2022/05/11 07:45:50;;;;;;;3.53;2.70;;;;;;;22.21;38.35;97290.03;5098633;27;20513;-66
2022/05/11 07:48:20;;;;;;;4.38;2.90;;;;;;;21.92;39.72;97255.28;5125922;27;20134;-60
2022/05/11 07:50:47;;;;;;;5.72;2.95;;;;;;;22.20;40.72;97279.97;5121933;27;20051;-60
2022/05/11 07:53:14;;;;;;;8.00;4.43;;;;;;;22.01;41.56;97241.34;5122322;27;20051;-60
2022/05/11 07:55:41;;;;;;;5.38;3.50;;;;;;;22.65;41.40;97313.16;5106322;27;20573;-59
2022/05/11 08:00:56;;;;;;;6.78;3.97;;;;;;;22.74;41.35;97316.13;5120268;27;20059;-60
2022/05/11 08:03:23;;;;;;;6.00;3.67;;;;;;;22.60;41.10;97282.63;5123747;27;20130;-61
2022/05/11 08:05:50;;;;;;;6.32;3.70;;;;;;;22.28;41.51;97284.22;5124542;27;20104;-62
2022/05/11 08:08:17;;;;;;;4.55;3.60;;;;;;;23.19;41.09;97322.56;5125328;27;20077;-59
2022/05/11 08:10:46;;;;;;;6.22;3.42;;;;;;;23.24;39.98;97322.00;5104798;27;20065;-65
2022/05/11 08:13:13;;;;;;;7.38;3.78;;;;;;;23.47;39.91;97313.31;5105459;27;20062;-64
2022/05/11 08:15:44;;;;;;;7.53;3.20;;;;;;;23.62;40.69;97329.41;5124027;27;20580;-67
2022/05/11 08:18:13;;;;;;;6.65;4.10;;;;;;;23.25;40.92;97315.13;5124751;27;20061;-61
2022/05/11 08:20:43;;;;;;;8.00;3.97;;;;;;;23.92;39.77;97311.09;5124428;27;20050;-60
2022/05/11 08:23:11;;;;;;;6.88;4.55;;;;;;;24.37;39.80;97314.53;5124149;27;20055;-63
2022/05/11 08:25:40;;;;;;;5.57;4.35;;;;;;;23.59;40.99;97327.47;5105039;27;20047;-62
2022/05/11 08:28:22;;;;;;;5.60;3.90;;;;;;;23.76;40.61;97319.69;5124349;27;20137;-65
2022/05/11 08:33:38;;;;;;;4.43;3.55;;;;;;;24.09;39.88;97309.00;5109600;27;20047;-65
2022/05/11 08:36:26;;;;;;;5.40;4.03;;;;;;;24.44;39.46;97331.28;5124392;27;20460;-62
2022/05/11 08:38:55;;;;;;;12.13;5.10;;;;;;;24.44;39.15;97333.34;5106394;27;20054;-61
2022/05/11 08:41:23;;;;;;;9.88;4.90;;;;;;;24.17;39.20;97328.13;5122240;27;20074;-67
2022/05/11 08:43:59;;;;;;;7.57;5.30;;;;;;;23.72;40.15;97330.31;5118667;27;20050;-68
2022/05/11 08:46:43;;;;;;;11.18;7.05;;;;;;;23.85;39.88;97333.97;5125491;27;20051;-67
2022/05/11 08:49:10;;;;;;;;;;;;;;;23.36;41.16;97329.78;5124530;27;20082;-64
2022/05/11 08:51:58;;;;;;;6.60;4.53;;;;;;;22.89;42.19;97323.00;5125329;27;20001;-67
2022/05/11 08:54:40;;;;;;;8.32;5.68;;;;;;;22.95;42.42;97329.69;5123733;27;20177;-66
2022/05/11 08:57:13;;;;;;;6.10;4.13;;;;;;;21.60;41.91;97111.41;5120935;27;20063;-68
2022/05/11 08:59:40;;;;;;;5.32;3.72;;;;;;;22.41;43.69;97321.78;5118364;27;20932;-66
2022/05/11 09:02:45;;;;;;;5.00;3.30;;;;;;;22.52;44.04;97327.19;5095916;28;20545;-69
2022/05/11 09:05:14;;;;;;;5.65;3.85;;;;;;;23.44;42.14;97317.81;5121966;27;20047;-67
2022/05/11 09:07:44;;;;;;;3.90;3.58;;;;;;;23.37;41.65;97331.34;5105811;27;20047;-71
2022/05/11 09:10:20;;;;;;;4.68;3.60;;;;;;;22.66;42.66;97292.13;5120304;27;20536;-69
2022/05/11 09:12:51;;;;;;;6.07;3.80;;;;;;;23.51;42.12;97330.94;5123773;27;20054;-69
2022/05/11 09:15:19;;;;;;;7.10;4.38;;;;;;;23.04;42.25;97315.72;5104973;27;20401;-69
2022/05/11 09:17:46;;;;;;;7.13;3.70;;;;;;;23.09;43.32;97320.84;5123210;27;20081;-67
2022/05/11 09:20:23;;;;;;;6.55;3.25;;;;;;;23.70;42.08;97327.94;5124401;27;20570;-67
2022/05/11 09:22:57;;;;;;;4.63;3.60;;;;;;;23.76;41.37;97331.00;5125344;27;20051;-67
2022/05/11 09:25:29;;;;;;;4.20;3.60;;;;;;;23.09;41.63;97323.66;5123434;27;20077;-68
2022/05/11 09:28:14;;;;;;;5.82;3.55;;;;;;;22.61;41.93;97330.19;5122755;27;20047;-69
2022/05/11 09:31:17;;;;;;;8.77;4.15;;;;;;;23.27;42.17;97327.59;5122587;27;20108;-81
2022/05/11 09:34:05;;;;;;;4.30;3.75;;;;;;;22.61;42.22;97321.72;5116123;27;20046;-67
2022/05/11 09:37:18;;;;;;;9.98;4.43;;;;;;;22.10;44.46;97323.34;5119918;27;20051;-66
2022/05/11 09:40:22;;;;;;;5.65;4.00;;;;;;;22.09;44.09;97327.41;5121504;27;20043;-67
2022/05/11 09:43:05;;;;;;;7.68;5.35;;;;;;;22.44;43.97;97329.38;5114379;27;20065;-69
2022/05/11 09:45:42;;;;;;;4.43;3.87;;;;;;;22.99;43.25;97333.22;5119352;28;20095;-65
2022/05/11 09:48:31;;;;;;;5.20;3.65;;;;;;;23.56;42.41;97321.91;5102624;27;20063;-68
2022/05/11 09:52:12;;;;;;;8.98;5.65;;;;;;;23.91;42.41;97323.66;5121565;28;20055;-70
2022/05/11 09:54:46;;;;;;;6.95;4.70;;;;;;;24.00;41.92;97320.97;5025791;28;20638;-75
2022/05/11 09:57:13;;;;;;;5.20;3.50;;;;;;;24.20;40.64;97324.38;5120454;27;20524;-68
2022/05/11 09:59:49;;;;;;;5.93;3.65;;;;;;;24.32;40.93;97317.94;5122872;28;20051;-70
2022/05/11 10:02:37;;;;;;;5.72;4.03;;;;;;;23.24;42.41;97322.00;5104046;28;20039;-66
2022/05/11 10:05:08;;;;;;;3.92;3.45;;;;;;;22.76;43.45;97322.13;5123728;28;20134;-65
2022/05/11 10:08:05;;;;;;;7.13;4.00;;;;;;;22.87;42.68;97323.47;5098168;28;20501;-65
2022/05/11 10:11:09;;;;;;;4.63;3.72;;;;;;;22.89;43.57;97318.13;5103773;28;20051;-73
2022/05/11 10:13:49;;;;;;;7.15;3.53;;;;;;;22.51;42.25;97229.56;5115939;28;20047;-70
2022/05/11 10:22:14;;;;;;;4.60;3.85;;;;;;;22.27;43.50;97310.06;5122469;28;20046;-68
2022/05/11 10:25:06;;;;;;;9.73;5.72;;;;;;;22.62;43.18;97314.03;5117504;28;20055;-67
2022/05/11 10:27:58;;;;;;;5.85;3.83;;;;;;;23.82;40.25;97298.09;5118433;28;20075;-67
2022/05/11 10:30:28;;;;;;;4.85;3.38;;;;;;;24.61;38.98;97310.06;5123337;28;21477;-67
2022/05/11 10:33:17;;;;;;;4.50;3.70;;;;;;;25.32;38.45;97306.31;5124298;28;20115;-68
2022/05/11 10:35:59;;;;;;;5.03;3.97;;;;;;;25.10;38.90;97294.16;5103480;28;20051;-66
2022/05/11 10:38:37;;;;;;;4.05;3.67;;;;;;;23.65;39.80;97302.22;5121920;27;20092;-67
2022/05/11 10:41:29;;;;;;;5.15;4.65;;;;;;;23.44;41.27;97294.41;5125690;27;20051;-67
2022/05/11 10:44:06;;;;;;;5.95;3.90;;;;;;;24.06;38.80;97282.38;5125673;27;20050;-68
2022/05/11 10:47:20;;;;;;;6.40;3.80;;;;;;;24.47;39.88;97290.69;5125824;27;20417;-68
2022/05/11 10:49:57;;;;;;;5.57;4.35;;;;;;;25.05;36.88;97252.22;5042577;28;20095;-68
2022/05/11 10:53:09;;;;;;;6.00;4.80;;;;;;;25.77;37.00;97282.34;5098606;27;20096;-66
2022/05/11 10:55:51;;;;;;;5.82;4.13;;;;;;;26.22;37.15;97283.41;5023490;28;20554;-68
2022/05/11 10:58:51;;;;;;;5.03;4.55;;;;;;;26.46;35.41;97266.56;5023792;28;20330;-67
2022/05/11 11:01:18;;;;;;;4.35;3.95;;;;;;;25.38;36.14;97285.91;5093413;27;20050;-68
2022/05/11 11:04:13;;;;;;;5.40;4.30;;;;;;;24.86;38.13;97318.53;5108965;27;20078;-67
2022/05/11 11:09:45;;;;;;;6.55;3.67;;;;;;;25.85;36.13;97269.47;5127444;27;20099;-67
2022/05/11 11:12:47;;;;;;;6.43;3.90;;;;;;;25.95;35.86;97217.16;5110310;27;20050;-68
2022/05/11 11:15:16;;;;;;;;;;;;;;;26.56;35.07;97274.66;5109734;27;20082;-68
2022/05/11 11:17:44;;;;;;;4.60;3.95;;;;;;;26.86;34.72;97275.81;5127090;27;19923;-67
2022/05/11 11:20:14;;;;;;;5.90;4.15;;;;;;;26.69;34.58;97254.63;5127106;27;20047;-67
2022/05/11 11:23:02;;;;;;;6.75;3.95;;;;;;;25.71;35.88;97267.19;5126234;27;20530;-65
2022/05/11 11:25:51;;;;;;;5.25;3.97;;;;;;;24.68;37.94;97273.00;5115607;27;20509;-66
2022/05/11 11:28:24;;;;;;;4.40;4.00;;;;;;;25.44;36.07;97239.44;5107012;27;20778;-68
2022/05/11 11:31:00;;;;;;;4.75;3.55;;;;;;;26.31;35.84;97266.38;5093720;27;20054;-69
2022/05/11 11:33:33;;;;;;;4.00;3.70;;;;;;;26.50;35.61;97219.69;5117809;27;20214;-69
2022/05/11 11:36:00;;;;;;;5.50;3.80;;;;;;;26.90;34.91;97264.28;5126059;27;20058;-71
2022/05/11 11:38:41;;;;;;;4.65;4.03;;;;;;;27.15;34.56;97259.09;5125174;27;20051;-67
2022/05/11 11:41:14;;;;;;;5.18;4.30;;;;;;;27.06;34.64;97256.25;5106629;27;20047;-67
2022/05/11 11:43:49;;;;;;;4.20;3.88;;;;;;;26.84;35.19;97255.63;5119379;27;20082;-67
2022/05/11 11:46:42;;;;;;;5.10;4.57;;;;;;;25.64;36.60;97256.13;5124224;27;20043;-63
2022/05/11 11:49:18;;;;;;;4.53;3.95;;;;;;;25.65;36.38;97249.19;5107115;27;20115;-69
2022/05/11 11:51:53;;;;;;;5.57;3.67;;;;;;;25.53;36.58;97247.25;5125429;27;20528;-69
2022/05/11 11:54:38;;;;;;;4.38;3.97;;;;;;;25.84;36.08;97250.84;5126582;27;20089;-67
2022/05/11 11:57:21;;;;;;;4.80;4.03;;;;;;;25.61;36.41;97248.53;5126312;27;20058;-65
2022/05/11 11:59:54;;;;;;;7.27;3.90;;;;;;;25.86;36.38;97242.69;5087929;28;20051;-71
2022/05/11 12:02:29;;;;;;;13.82;3.70;;;;;;;25.81;35.79;97212.06;5116207;27;20624;-66
2022/05/11 12:05:11;;;;;;;7.65;4.07;;;;;;;25.93;35.70;97248.06;5125090;27;20051;-66
2022/05/11 12:16:22;;;;;;;5.15;3.70;;;;;;;26.42;36.32;97235.47;5123639;27;20058;-68
2022/05/11 12:18:49;;;;;;;4.57;3.72;;;;;;;26.55;35.83;97236.13;5124171;27;20068;-68
2022/05/11 12:21:29;;;;;;;4.43;3.80;;;;;;;26.39;35.88;97235.59;5122940;27;20100;-68
2022/05/11 12:24:00;;;;;;;4.22;3.83;;;;;;;26.06;36.59;97232.53;5124001;27;20059;-69
2022/05/11 12:26:33;;;;;;;6.88;3.80;;;;;;;25.89;36.71;97153.72;5123063;27;20043;-68
2022/05/11 12:32:08;;;;;;;4.90;3.55;;;;;;;26.22;35.65;97208.75;5112556;27;20055;-67
2022/05/11 12:34:44;;;;;;;4.70;3.50;;;;;;;26.31;35.56;97160.47;5118177;27;20108;-68
2022/05/11 12:37:32;;;;;;;7.72;3.85;;;;;;;26.37;35.14;97204.84;5116555;27;20129;-68
2022/05/11 12:40:13;;;;;;;5.50;4.40;;;;;;;26.81;35.19;97204.59;5118098;27;20055;-74
2022/05/11 12:42:56;;;;;;;4.70;3.83;;;;;;;27.47;32.91;97144.59;5114053;27;20467;-72
2022/05/11 12:45:35;;;;;;;5.22;4.28;;;;;;;28.10;32.52;97215.56;5122078;27;20503;-67
2022/05/11 12:48:06;;;;;;;5.13;4.25;;;;;;;28.47;31.88;97181.13;5116086;27;20043;-68
2022/05/11 12:50:37;;;;;;;5.47;4.38;;;;;;;29.44;30.56;97197.91;5088315;27;20047;-70
2022/05/11 12:53:17;;;;;;;3.90;3.60;;;;;;;29.95;29.50;97191.00;5069499;28;20049;-66
2022/05/11 12:56:07;;;;;;;4.40;4.00;;;;;;;30.81;28.36;97189.13;5079057;28;20162;-71
2022/05/11 12:58:35;;;;;;;4.60;4.20;;;;;;;30.63;29.14;97213.09;5065470;28;20071;-75
2022/05/11 13:01:05;;;;;;;5.28;4.68;;;;;;;30.43;28.77;97135.84;5082987;28;20048;-66
2022/05/11 13:03:35;;;;;;;5.18;4.13;;;;;;;31.96;27.29;97185.94;5070039;28;20048;-65
2022/05/11 13:06:05;;;;;;;5.15;4.50;;;;;;;31.69;27.67;97180.72;5070367;28;20044;-65
2022/05/11 13:08:41;;;;;;;5.00;4.32;;;;;;;30.46;28.83;97186.31;5083208;28;20070;-64
2022/05/11 13:11:13;;;;;;;5.03;4.63;;;;;;;29.35;30.01;97177.22;5079214;28;20051;-67
2022/05/11 13:13:42;;;;;;;6.13;4.55;;;;;;;29.29;30.69;97173.50;4700634;28;10001256;-66
2022/05/11 13:16:20;;;;;;;5.25;4.75;;;;;;;29.10;30.82;97177.81;5077713;28;20567;-64
2022/05/11 13:18:48;;;;;;;5.20;4.40;;;;;;;28.13;32.08;97186.09;5076128;28;20075;-65
2022/05/11 13:21:28;;;;;;;8.38;4.50;;;;;;;26.96;33.74;97186.41;5078230;28;20048;-65
2022/05/11 13:23:55;;;;;;;5.18;4.68;;;;;;;26.35;34.03;97156.22;5063655;28;20048;-66
2022/05/11 13:26:35;;;;;;;4.15;3.72;;;;;;;26.07;34.88;97174.47;5062509;28;20049;-65
2022/05/11 13:29:20;;;;;;;4.88;4.40;;;;;;;25.12;36.90;97178.25;5075815;28;20577;-66
2022/05/11 13:32:03;;;;;;;8.10;4.50;;;;;;;25.81;36.42;97166.63;5062478;28;20087;-64
2022/05/11 13:34:39;;;;;;;4.55;3.70;;;;;;;25.25;35.68;97176.13;5061846;28;20060;-63
2022/05/11 13:37:23;;;;;;;4.78;3.92;;;;;;;25.92;35.67;97161.31;5063289;28;20637;-66
2022/05/11 13:39:50;;;;;;;4.50;4.07;;;;;;;25.40;36.80;97161.41;5062203;28;20059;-65
2022/05/11 13:42:28;;;;;;;4.95;3.90;;;;;;;25.83;35.92;97152.78;5078600;28;20044;-67
2022/05/11 13:45:02;;;;;;;7.40;4.25;;;;;;;25.90;35.46;97158.13;5080468;28;20153;-65
2022/05/11 13:50:43;;;;;;;4.85;4.35;;;;;;;25.81;36.21;97155.28;5082518;28;20547;-67
2022/05/11 13:53:12;;;;;;;4.45;4.05;;;;;;;26.26;35.57;97152.56;5078199;28;20055;-67
2022/05/11 13:55:44;;;;;;;4.60;4.20;;;;;;;25.78;36.66;97161.91;5082629;28;20130;-65
2022/05/11 13:58:44;;;;;;;5.65;3.90;;;;;;;24.48;38.48;97162.00;5076368;28;20052;-67
2022/05/11 14:01:12;;;;;;;5.68;3.90;;;;;;;24.17;37.92;97090.28;5061157;28;20056;-65
2022/05/11 14:03:44;;;;;;;7.38;3.88;;;;;;;24.41;37.97;97152.94;5083515;28;20067;-66
2022/05/11 14:06:17;;;;;;;4.80;4.07;;;;;;;24.65;37.62;97159.78;5064783;28;20056;-67
2022/05/11 14:08:46;;;;;;;4.90;4.30;;;;;;;24.66;37.58;97128.16;5083549;28;20055;-67
2022/05/11 14:11:15;;;;;;;5.47;4.28;;;;;;;24.75;37.16;97162.25;5064458;28;20322;-67
2022/05/11 14:13:42;;;;;;;4.80;3.80;;;;;;;24.91;36.95;97121.59;5083644;28;20056;-67
2022/05/11 14:16:12;;;;;;;8.30;4.13;;;;;;;26.16;35.29;97128.25;5086209;28;20060;-67
2022/05/11 14:18:48;;;;;;;5.10;4.22;;;;;;;27.96;33.09;97136.47;5085499;28;20109;-68
2022/05/11 14:21:15;;;;;;;5.13;4.20;;;;;;;27.89;33.00;97148.22;5087549;28;20058;-67
2022/05/11 14:23:42;;;;;;;4.55;3.95;;;;;;;26.83;33.97;97089.13;5086095;28;20063;-66
2022/05/11 14:26:10;;;;;;;6.95;4.40;;;;;;;25.82;36.66;97143.47;5069348;28;20052;-67
2022/05/11 14:28:40;;;;;;;6.32;4.00;;;;;;;25.75;36.98;97149.41;5069550;28;20044;-67
2022/05/11 14:31:12;;;;;;;4.95;4.45;;;;;;;25.54;36.27;97084.25;5087910;28;20051;-67
2022/05/11 14:33:39;;;;;;;3.92;3.63;;;;;;;27.54;33.87;97147.09;5086961;28;20048;-66
2022/05/11 14:36:07;;;;;;;7.28;4.30;;;;;;;29.26;31.69;97145.94;5068884;28;20055;-66
2022/05/11 14:38:35;;;;;;;4.72;4.43;;;;;;;29.14;31.27;97099.28;5086798;28;20052;-67
2022/05/11 14:41:03;;;;;;;5.72;4.15;;;;;;;30.14;29.96;97090.22;5087405;28;20051;-68
2022/05/11 14:43:30;;;;;;;4.93;4.53;;;;;;;31.23;28.79;97076.94;5087163;28;20059;-68
2022/05/11 14:46:00;;;;;;;5.60;5.00;;;;;;;30.42;29.09;97057.09;5087206;28;20055;-66
2022/05/11 14:48:31;;;;;;;5.95;5.35;;;;;;;28.85;31.56;97101.31;5086887;28;20055;-66
2022/05/11 14:50:58;;;;;;;4.80;4.40;;;;;;;28.04;32.76;97136.94;5068538;28;20160;-67
2022/05/11 14:53:25;;;;;;;5.13;4.63;;;;;;;29.53;31.02;97115.00;5086783;28;20048;-67
2022/05/11 14:55:52;;;;;;;6.50;5.28;;;;;;;30.70;29.67;97126.81;5087356;28;20409;-67
2022/05/11 15:04:00;;;;;;;5.53;5.03;;;;;;;31.34;28.89;97105.69;5086515;28;20530;-66
2022/05/11 15:06:32;;;;;;;5.22;4.75;;;;;;;32.28;28.30;97127.22;5068415;28;20052;-67
2022/05/11 15:08:59;;;;;;;5.63;4.88;;;;;;;32.64;27.94;97114.94;5068102;28;20075;-67
2022/05/11 15:14:11;;;;;;;8.00;5.18;;;;;;;33.39;26.84;97096.81;5086470;28;20060;-66
2022/05/11 15:16:43;;;;;;;6.30;5.70;;;;;;;30.39;29.17;97032.34;5069784;28;20150;-67
2022/05/11 15:19:09;;;;;;;5.72;5.10;;;;;;;31.55;27.89;97047.03;5065988;28;20548;-68
2022/05/11 15:21:36;;;;;;;5.47;4.90;;;;;;;32.44;27.72;97117.19;5064469;28;20529;-68
2022/05/11 15:24:03;;;;;;;6.13;4.32;;;;;;;32.39;26.86;97077.78;5047981;28;20109;-67
2022/05/11 15:26:30;;;;;;;5.38;4.85;;;;;;;30.34;29.62;97115.97;5065293;28;20062;-67
2022/05/11 15:28:57;;;;;;;10.80;4.90;;;;;;;31.17;28.42;97113.31;5065862;28;20060;-68
2022/05/11 15:31:24;;;;;;;5.75;4.50;;;;;;;31.52;28.32;97116.78;5066126;28;20636;-64
2022/05/11 15:33:50;;;;;;;5.30;4.80;;;;;;;29.99;30.15;97111.56;5065607;28;20048;-66
2022/05/11 15:36:17;;;;;;;5.18;4.68;;;;;;;28.56;32.21;97069.91;5047531;28;20048;-67
2022/05/11 15:38:44;;;;;;;4.68;4.28;;;;;;;27.19;34.05;97066.25;5065515;28;20518;-66
2022/05/11 15:41:11;;;;;;;7.30;4.60;;;;;;;27.01;34.50;97111.03;5065755;28;20059;-67
2022/05/11 15:43:38;;;;;;;4.97;4.47;;;;;;;25.24;36.59;97088.69;5064287;28;20053;-69
2022/05/11 15:46:05;;;;;;;4.95;4.22;;;;;;;24.31;38.55;97120.94;5064131;28;20533;-68
2022/05/11 15:48:33;;;;;;;6.53;4.28;;;;;;;23.93;39.14;97041.00;5065892;28;20064;-66
2022/05/11 15:51:11;;;;;;;4.20;3.78;;;;;;;24.86;38.49;97128.66;5084275;28;20109;-68
2022/05/11 15:53:37;;;;;;;5.07;3.88;;;;;;;24.99;37.86;97120.81;5085226;28;20087;-67
2022/05/11 15:56:04;;;;;;;7.97;4.93;;;;;;;24.56;38.60;97050.03;5085576;28;20822;-66
2022/05/11 15:58:33;;;;;;;7.43;4.90;;;;;;;24.91;38.55;97127.25;5041036;28;20068;-67
2022/05/11 16:01:00;;;;;;;9.10;5.80;;;;;;;25.02;38.14;97105.72;5025226;28;20045;-68
2022/05/11 16:03:28;;;;;;;5.43;4.13;;;;;;;25.35;37.44;97122.31;5025377;28;20092;-68
2022/05/11 16:05:55;;;;;;;4.88;3.47;;;;;;;25.45;37.63;97104.84;5025456;28;20080;-66
2022/05/11 16:08:23;;;;;;;4.45;3.42;;;;;;;26.26;36.26;97124.16;5025836;28;20066;-68
2022/05/11 16:10:52;;;;;;;6.07;4.13;;;;;;;26.95;34.94;97130.81;5025781;28;20050;-67
2022/05/11 16:13:19;;;;;;;5.85;3.70;;;;;;;27.32;34.07;97083.94;5025308;28;20045;-68
2022/05/11 16:15:46;;;;;;;7.22;3.88;;;;;;;27.44;33.93;97122.00;5025318;28;20442;-66
2022/05/11 16:20:59;;;;;;;3.70;3.15;;;;;;;26.40;35.66;97126.38;5024948;28;20131;-67
2022/05/11 16:23:29;;;;;;;3.75;3.45;;;;;;;26.67;35.35;97120.72;5024972;28;20148;-67
2022/05/11 16:25:57;;;;;;;4.55;3.60;;;;;;;24.71;37.48;97025.56;5025083;28;20088;-67
2022/05/11 16:28:27;;;;;;;6.35;4.70;;;;;;;24.61;39.06;97131.56;5039758;28;20049;-67
2022/05/11 16:30:56;;;;;;;6.05;4.68;;;;;;;24.09;40.46;97137.09;5023690;28;20139;-66
2022/05/11 16:33:28;;;;;;;5.30;3.90;;;;;;;23.51;41.19;97144.28;5024757;28;20455;-66
2022/05/11 16:35:55;;;;;;;3.92;3.20;;;;;;;23.31;41.49;97106.97;5024857;28;20061;-66
2022/05/11 16:38:22;;;;;;;5.03;4.18;;;;;;;23.69;41.19;97147.34;5024231;28;20479;-67
2022/05/11 16:40:49;;;;;;;8.35;3.92;;;;;;;24.32;40.37;97150.84;5025501;28;20053;-67